sensor_id;sensor_type;location;lat;lon;timestamp;P1;durP1;ratioP1;P2;durP2;ratioP2
7199;SDS011;3641;49.082;8.200;2022-08-19T00:01:47;27.40;;;19.00;;
7199;SDS011;3641;49.082;8.200;2022-08-19T00:04:16;24.67;;;19.15;;
7199;SDS011;3641;49.082;8.200;2022-08-19T00:06:45;23.85;;;19.00;;
7199;SDS011;3641;49.082;8.200;2022-08-19T00:09:14;24.83;;;18.85;;
7199;SDS011;3641;49.082;8.200;2022-08-19T00:11:44;27.67;;;20.20;;
7199;SDS011;3641;49.082;8.200;2022-08-19T00:14:12;26.90;;;19.73;;
7199;SDS011;3641;49.082;8.200;2022-08-19T00:16:41;25.92;;;19.92;;
7199;SDS011;3641;49.082;8.200;2022-08-19T00:19:09;24.85;;;20.30;;
7199;SDS011;3641;49.082;8.200;2022-08-19T00:21:36;26.27;;;19.55;;
7199;SDS011;3641;49.082;8.200;2022-08-19T00:24:04;27.00;;;20.33;;
7199;SDS011;3641;49.082;8.200;2022-08-19T00:26:31;24.45;;;20.15;;
7199;SDS011;3641;49.082;8.200;2022-08-19T00:28:59;24.60;;;19.20;;
7199;SDS011;3641;49.082;8.200;2022-08-19T00:31:26;28.95;;;20.48;;
7199;SDS011;3641;49.082;8.200;2022-08-19T00:33:53;26.27;;;20.02;;
7199;SDS011;3641;49.082;8.200;2022-08-19T00:36:20;26.70;;;19.42;;
7199;SDS011;3641;49.082;8.200;2022-08-19T00:38:47;26.27;;;19.90;;
7199;SDS011;3641;49.082;8.200;2022-08-19T00:41:15;25.80;;;19.83;;
7199;SDS011;3641;49.082;8.200;2022-08-19T00:43:56;36.85;;;20.25;;
7199;SDS011;3641;49.082;8.200;2022-08-19T00:46:25;27.25;;;21.00;;
7199;SDS011;3641;49.082;8.200;2022-08-19T00:48:52;27.23;;;20.77;;
7199;SDS011;3641;49.082;8.200;2022-08-19T00:51:19;30.80;;;21.52;;
7199;SDS011;3641;49.082;8.200;2022-08-19T00:53:47;27.23;;;21.10;;
7199;SDS011;3641;49.082;8.200;2022-08-19T00:56:13;26.48;;;21.95;;
7199;SDS011;3641;49.082;8.200;2022-08-19T00:58:40;25.30;;;19.33;;
7199;SDS011;3641;49.082;8.200;2022-08-19T01:01:07;29.05;;;20.40;;
7199;SDS011;3641;49.082;8.200;2022-08-19T01:03:35;26.52;;;19.90;;
7199;SDS011;3641;49.082;8.200;2022-08-19T01:06:01;24.70;;;20.27;;
7199;SDS011;3641;49.082;8.200;2022-08-19T01:08:28;25.48;;;20.25;;
7199;SDS011;3641;49.082;8.200;2022-08-19T01:10:56;24.23;;;19.20;;
7199;SDS011;3641;49.082;8.200;2022-08-19T01:13:25;26.67;;;20.52;;
7199;SDS011;3641;49.082;8.200;2022-08-19T01:15:56;28.15;;;20.63;;
7199;SDS011;3641;49.082;8.200;2022-08-19T01:18:26;26.00;;;20.15;;
7199;SDS011;3641;49.082;8.200;2022-08-19T01:20:56;28.42;;;19.90;;
7199;SDS011;3641;49.082;8.200;2022-08-19T01:23:28;24.40;;;19.80;;
7199;SDS011;3641;49.082;8.200;2022-08-19T01:26:08;26.25;;;19.23;;
7199;SDS011;3641;49.082;8.200;2022-08-19T01:28:36;23.63;;;19.30;;
7199;SDS011;3641;49.082;8.200;2022-08-19T01:31:03;24.92;;;18.75;;
7199;SDS011;3641;49.082;8.200;2022-08-19T01:33:30;29.13;;;19.85;;
7199;SDS011;3641;49.082;8.200;2022-08-19T01:36:03;26.83;;;21.13;;
7199;SDS011;3641;49.082;8.200;2022-08-19T01:38:34;23.55;;;19.25;;
7199;SDS011;3641;49.082;8.200;2022-08-19T01:41:02;27.45;;;21.48;;
7199;SDS011;3641;49.082;8.200;2022-08-19T01:43:29;26.92;;;20.77;;
7199;SDS011;3641;49.082;8.200;2022-08-19T01:45:55;27.38;;;20.63;;
7199;SDS011;3641;49.082;8.200;2022-08-19T01:48:22;26.42;;;20.08;;
7199;SDS011;3641;49.082;8.200;2022-08-19T01:50:48;24.35;;;19.40;;
7199;SDS011;3641;49.082;8.200;2022-08-19T01:53:15;25.98;;;20.45;;
7199;SDS011;3641;49.082;8.200;2022-08-19T01:55:43;25.92;;;19.65;;
7199;SDS011;3641;49.082;8.200;2022-08-19T01:58:11;23.92;;;19.88;;
7199;SDS011;3641;49.082;8.200;2022-08-19T02:00:40;23.30;;;19.17;;
7199;SDS011;3641;49.082;8.200;2022-08-19T02:03:07;25.40;;;19.48;;
7199;SDS011;3641;49.082;8.200;2022-08-19T02:05:36;27.45;;;19.98;;
7199;SDS011;3641;49.082;8.200;2022-08-19T02:08:03;23.83;;;19.02;;
7199;SDS011;3641;49.082;8.200;2022-08-19T02:10:30;24.17;;;19.85;;
7199;SDS011;3641;49.082;8.200;2022-08-19T02:12:58;25.55;;;19.73;;
7199;SDS011;3641;49.082;8.200;2022-08-19T02:15:24;25.65;;;20.27;;
7199;SDS011;3641;49.082;8.200;2022-08-19T02:17:51;25.20;;;20.42;;
7199;SDS011;3641;49.082;8.200;2022-08-19T02:20:18;24.95;;;20.20;;
7199;SDS011;3641;49.082;8.200;2022-08-19T02:22:44;25.88;;;19.58;;
7199;SDS011;3641;49.082;8.200;2022-08-19T02:25:11;24.83;;;19.88;;
7199;SDS011;3641;49.082;8.200;2022-08-19T02:27:39;23.60;;;19.50;;
7199;SDS011;3641;49.082;8.200;2022-08-19T02:30:10;26.65;;;21.33;;
7199;SDS011;3641;49.082;8.200;2022-08-19T02:32:38;27.83;;;21.08;;
7199;SDS011;3641;49.082;8.200;2022-08-19T02:35:05;27.75;;;21.38;;
7199;SDS011;3641;49.082;8.200;2022-08-19T02:37:32;33.22;;;21.58;;
7199;SDS011;3641;49.082;8.200;2022-08-19T02:40:17;30.67;;;22.67;;
7199;SDS011;3641;49.082;8.200;2022-08-19T02:42:43;28.77;;;21.77;;
7199;SDS011;3641;49.082;8.200;2022-08-19T02:45:12;26.48;;;20.45;;
7199;SDS011;3641;49.082;8.200;2022-08-19T02:47:39;26.63;;;21.13;;
7199;SDS011;3641;49.082;8.200;2022-08-19T02:50:07;26.13;;;20.90;;
7199;SDS011;3641;49.082;8.200;2022-08-19T02:52:34;24.73;;;20.13;;
7199;SDS011;3641;49.082;8.200;2022-08-19T02:55:01;28.75;;;21.40;;
7199;SDS011;3641;49.082;8.200;2022-08-19T02:57:29;26.17;;;20.77;;
7199;SDS011;3641;49.082;8.200;2022-08-19T02:59:57;28.58;;;20.95;;
7199;SDS011;3641;49.082;8.200;2022-08-19T03:02:25;26.92;;;21.38;;
7199;SDS011;3641;49.082;8.200;2022-08-19T03:04:52;27.85;;;20.38;;
7199;SDS011;3641;49.082;8.200;2022-08-19T03:07:18;26.27;;;21.05;;
7199;SDS011;3641;49.082;8.200;2022-08-19T03:09:45;24.92;;;20.20;;
7199;SDS011;3641;49.082;8.200;2022-08-19T03:12:11;25.42;;;20.20;;
7199;SDS011;3641;49.082;8.200;2022-08-19T03:14:38;27.70;;;22.27;;
7199;SDS011;3641;49.082;8.200;2022-08-19T03:17:05;26.27;;;20.40;;
7199;SDS011;3641;49.082;8.200;2022-08-19T03:19:32;27.77;;;21.38;;
7199;SDS011;3641;49.082;8.200;2022-08-19T03:21:59;29.75;;;23.48;;
7199;SDS011;3641;49.082;8.200;2022-08-19T03:24:26;28.00;;;22.67;;
7199;SDS011;3641;49.082;8.200;2022-08-19T03:26:53;29.33;;;22.85;;
7199;SDS011;3641;49.082;8.200;2022-08-19T03:29:22;29.23;;;22.58;;
7199;SDS011;3641;49.082;8.200;2022-08-19T03:31:49;28.50;;;22.77;;
7199;SDS011;3641;49.082;8.200;2022-08-19T03:34:17;31.38;;;24.27;;
7199;SDS011;3641;49.082;8.200;2022-08-19T03:36:47;30.85;;;25.02;;
7199;SDS011;3641;49.082;8.200;2022-08-19T03:39:14;35.97;;;26.20;;
7199;SDS011;3641;49.082;8.200;2022-08-19T03:41:42;34.08;;;26.15;;
7199;SDS011;3641;49.082;8.200;2022-08-19T03:44:09;32.35;;;25.65;;
7199;SDS011;3641;49.082;8.200;2022-08-19T03:46:36;33.03;;;26.55;;
7199;SDS011;3641;49.082;8.200;2022-08-19T03:49:03;37.67;;;27.83;;
7199;SDS011;3641;49.082;8.200;2022-08-19T03:51:34;34.83;;;26.63;;
7199;SDS011;3641;49.082;8.200;2022-08-19T03:54:04;33.20;;;26.33;;
7199;SDS011;3641;49.082;8.200;2022-08-19T03:56:33;33.28;;;26.15;;
7199;SDS011;3641;49.082;8.200;2022-08-19T03:59:02;32.22;;;25.02;;
7199;SDS011;3641;49.082;8.200;2022-08-19T04:01:30;30.52;;;24.77;;
7199;SDS011;3641;49.082;8.200;2022-08-19T04:03:57;30.20;;;24.40;;
7199;SDS011;3641;49.082;8.200;2022-08-19T04:06:25;29.50;;;25.25;;
7199;SDS011;3641;49.082;8.200;2022-08-19T04:08:55;31.77;;;25.42;;
7199;SDS011;3641;49.082;8.200;2022-08-19T04:11:25;30.73;;;24.58;;
7199;SDS011;3641;49.082;8.200;2022-08-19T04:13:54;29.20;;;24.33;;
7199;SDS011;3641;49.082;8.200;2022-08-19T04:16:22;31.10;;;25.52;;
7199;SDS011;3641;49.082;8.200;2022-08-19T04:18:53;29.30;;;24.10;;
7199;SDS011;3641;49.082;8.200;2022-08-19T04:21:20;28.80;;;23.90;;
7199;SDS011;3641;49.082;8.200;2022-08-19T04:23:49;28.55;;;23.55;;
7199;SDS011;3641;49.082;8.200;2022-08-19T04:26:17;29.42;;;23.08;;
7199;SDS011;3641;49.082;8.200;2022-08-19T04:28:46;27.85;;;23.88;;
7199;SDS011;3641;49.082;8.200;2022-08-19T04:31:14;31.05;;;24.50;;
7199;SDS011;3641;49.082;8.200;2022-08-19T04:33:42;35.83;;;24.90;;
7199;SDS011;3641;49.082;8.200;2022-08-19T04:36:15;33.95;;;24.75;;
7199;SDS011;3641;49.082;8.200;2022-08-19T04:38:42;30.20;;;25.02;;
7199;SDS011;3641;49.082;8.200;2022-08-19T04:41:09;33.20;;;25.33;;
7199;SDS011;3641;49.082;8.200;2022-08-19T04:43:54;30.58;;;24.77;;
7199;SDS011;3641;49.082;8.200;2022-08-19T04:46:21;28.15;;;22.63;;
7199;SDS011;3641;49.082;8.200;2022-08-19T04:48:47;28.85;;;24.40;;
7199;SDS011;3641;49.082;8.200;2022-08-19T04:51:14;33.65;;;24.42;;
7199;SDS011;3641;49.082;8.200;2022-08-19T04:53:41;31.70;;;23.80;;
7199;SDS011;3641;49.082;8.200;2022-08-19T04:56:08;30.63;;;24.15;;
7199;SDS011;3641;49.082;8.200;2022-08-19T04:58:37;28.58;;;23.63;;
7199;SDS011;3641;49.082;8.200;2022-08-19T05:01:08;35.58;;;24.17;;
7199;SDS011;3641;49.082;8.200;2022-08-19T05:03:35;29.42;;;24.88;;
7199;SDS011;3641;49.082;8.200;2022-08-19T05:06:04;31.25;;;23.73;;
7199;SDS011;3641;49.082;8.200;2022-08-19T05:08:33;30.92;;;25.73;;
7199;SDS011;3641;49.082;8.200;2022-08-19T05:11:00;41.40;;;25.08;;
7199;SDS011;3641;49.082;8.200;2022-08-19T05:13:28;31.27;;;24.75;;
7199;SDS011;3641;49.082;8.200;2022-08-19T05:15:54;30.65;;;24.38;;
7199;SDS011;3641;49.082;8.200;2022-08-19T05:18:24;32.90;;;25.00;;
7199;SDS011;3641;49.082;8.200;2022-08-19T05:21:08;29.15;;;23.60;;
7199;SDS011;3641;49.082;8.200;2022-08-19T05:23:53;32.25;;;24.08;;
7199;SDS011;3641;49.082;8.200;2022-08-19T05:26:20;30.65;;;24.20;;
7199;SDS011;3641;49.082;8.200;2022-08-19T05:28:47;27.75;;;22.75;;
7199;SDS011;3641;49.082;8.200;2022-08-19T05:31:13;29.75;;;23.48;;
7199;SDS011;3641;49.082;8.200;2022-08-19T05:33:41;29.08;;;23.70;;
7199;SDS011;3641;49.082;8.200;2022-08-19T05:36:08;32.72;;;24.08;;
7199;SDS011;3641;49.082;8.200;2022-08-19T05:38:34;26.75;;;22.73;;
7199;SDS011;3641;49.082;8.200;2022-08-19T05:41:05;28.23;;;22.00;;
7199;SDS011;3641;49.082;8.200;2022-08-19T05:43:33;28.98;;;23.17;;
7199;SDS011;3641;49.082;8.200;2022-08-19T05:46:00;28.02;;;23.25;;
7199;SDS011;3641;49.082;8.200;2022-08-19T05:48:26;27.00;;;22.83;;
7199;SDS011;3641;49.082;8.200;2022-08-19T05:50:54;27.00;;;22.52;;
7199;SDS011;3641;49.082;8.200;2022-08-19T05:53:21;28.08;;;22.23;;
7199;SDS011;3641;49.082;8.200;2022-08-19T05:55:48;28.67;;;22.40;;
7199;SDS011;3641;49.082;8.200;2022-08-19T05:58:14;27.38;;;22.42;;
7199;SDS011;3641;49.082;8.200;2022-08-19T06:00:42;24.38;;;20.55;;
7199;SDS011;3641;49.082;8.200;2022-08-19T06:03:10;33.22;;;22.73;;
7199;SDS011;3641;49.082;8.200;2022-08-19T06:05:36;29.30;;;22.65;;
7199;SDS011;3641;49.082;8.200;2022-08-19T06:08:04;26.05;;;22.30;;
7199;SDS011;3641;49.082;8.200;2022-08-19T06:10:32;25.45;;;21.55;;
7199;SDS011;3641;49.082;8.200;2022-08-19T06:13:00;27.13;;;22.08;;
7199;SDS011;3641;49.082;8.200;2022-08-19T06:15:27;26.52;;;22.10;;
7199;SDS011;3641;49.082;8.200;2022-08-19T06:17:54;26.38;;;21.02;;
7199;SDS011;3641;49.082;8.200;2022-08-19T06:20:21;25.48;;;21.98;;
7199;SDS011;3641;49.082;8.200;2022-08-19T06:22:48;27.40;;;20.08;;
7199;SDS011;3641;49.082;8.200;2022-08-19T06:25:17;24.65;;;21.38;;
7199;SDS011;3641;49.082;8.200;2022-08-19T06:27:44;27.17;;;20.70;;
7199;SDS011;3641;49.082;8.200;2022-08-19T06:30:11;25.27;;;20.67;;
7199;SDS011;3641;49.082;8.200;2022-08-19T06:32:38;26.33;;;19.55;;
7199;SDS011;3641;49.082;8.200;2022-08-19T06:35:05;24.10;;;19.42;;
7199;SDS011;3641;49.082;8.200;2022-08-19T06:37:32;22.27;;;18.80;;
7199;SDS011;3641;49.082;8.200;2022-08-19T06:39:59;21.98;;;18.25;;
7199;SDS011;3641;49.082;8.200;2022-08-19T06:42:27;20.83;;;17.45;;
7199;SDS011;3641;49.082;8.200;2022-08-19T06:44:54;20.90;;;18.60;;
7199;SDS011;3641;49.082;8.200;2022-08-19T06:47:20;23.25;;;18.17;;
7199;SDS011;3641;49.082;8.200;2022-08-19T06:49:47;21.38;;;18.63;;
7199;SDS011;3641;49.082;8.200;2022-08-19T06:52:14;18.48;;;16.48;;
7199;SDS011;3641;49.082;8.200;2022-08-19T06:54:41;19.17;;;16.38;;
7199;SDS011;3641;49.082;8.200;2022-08-19T06:57:08;21.25;;;17.90;;
7199;SDS011;3641;49.082;8.200;2022-08-19T06:59:40;24.63;;;17.40;;
7199;SDS011;3641;49.082;8.200;2022-08-19T07:02:07;20.15;;;16.38;;
7199;SDS011;3641;49.082;8.200;2022-08-19T07:04:34;20.63;;;16.85;;
7199;SDS011;3641;49.082;8.200;2022-08-19T07:07:04;18.08;;;15.20;;
7199;SDS011;3641;49.082;8.200;2022-08-19T07:09:32;19.10;;;16.45;;
7199;SDS011;3641;49.082;8.200;2022-08-19T07:11:59;17.88;;;15.68;;
7199;SDS011;3641;49.082;8.200;2022-08-19T07:14:26;19.90;;;15.65;;
7199;SDS011;3641;49.082;8.200;2022-08-19T07:16:56;22.23;;;16.40;;
7199;SDS011;3641;49.082;8.200;2022-08-19T07:19:23;19.67;;;14.93;;
7199;SDS011;3641;49.082;8.200;2022-08-19T07:21:52;18.10;;;14.27;;
7199;SDS011;3641;49.082;8.200;2022-08-19T07:24:20;21.00;;;15.00;;
7199;SDS011;3641;49.082;8.200;2022-08-19T07:26:48;18.27;;;14.10;;
7199;SDS011;3641;49.082;8.200;2022-08-19T07:29:15;16.65;;;14.85;;
7199;SDS011;3641;49.082;8.200;2022-08-19T07:31:42;15.90;;;13.95;;
7199;SDS011;3641;49.082;8.200;2022-08-19T07:34:11;17.33;;;13.77;;
7199;SDS011;3641;49.082;8.200;2022-08-19T07:36:40;18.50;;;14.27;;
7199;SDS011;3641;49.082;8.200;2022-08-19T07:39:09;17.23;;;13.63;;
7199;SDS011;3641;49.082;8.200;2022-08-19T07:41:38;16.55;;;13.40;;
7199;SDS011;3641;49.082;8.200;2022-08-19T07:44:06;16.13;;;13.70;;
7199;SDS011;3641;49.082;8.200;2022-08-19T07:46:34;16.90;;;12.73;;
7199;SDS011;3641;49.082;8.200;2022-08-19T07:49:05;19.60;;;13.40;;
7199;SDS011;3641;49.082;8.200;2022-08-19T07:51:34;14.90;;;12.05;;
7199;SDS011;3641;49.082;8.200;2022-08-19T07:54:01;15.07;;;12.38;;
7199;SDS011;3641;49.082;8.200;2022-08-19T07:56:28;19.48;;;11.63;;
7199;SDS011;3641;49.082;8.200;2022-08-19T07:58:54;15.02;;;11.75;;
7199;SDS011;3641;49.082;8.200;2022-08-19T08:01:23;13.77;;;11.48;;
7199;SDS011;3641;49.082;8.200;2022-08-19T08:03:51;15.15;;;10.55;;
7199;SDS011;3641;49.082;8.200;2022-08-19T08:06:38;16.48;;;12.20;;
7199;SDS011;3641;49.082;8.200;2022-08-19T08:09:23;16.27;;;11.73;;
7199;SDS011;3641;49.082;8.200;2022-08-19T08:11:53;14.65;;;11.93;;
7199;SDS011;3641;49.082;8.200;2022-08-19T08:14:22;15.60;;;12.07;;
7199;SDS011;3641;49.082;8.200;2022-08-19T08:16:50;18.55;;;11.50;;
7199;SDS011;3641;49.082;8.200;2022-08-19T08:19:18;15.18;;;12.68;;
7199;SDS011;3641;49.082;8.200;2022-08-19T08:21:47;14.45;;;11.95;;
7199;SDS011;3641;49.082;8.200;2022-08-19T08:24:14;14.48;;;11.20;;
7199;SDS011;3641;49.082;8.200;2022-08-19T08:26:41;15.52;;;11.27;;
7199;SDS011;3641;49.082;8.200;2022-08-19T08:29:08;17.92;;;10.40;;
7199;SDS011;3641;49.082;8.200;2022-08-19T08:31:38;17.67;;;12.15;;
7199;SDS011;3641;49.082;8.200;2022-08-19T08:34:05;15.02;;;11.63;;
7199;SDS011;3641;49.082;8.200;2022-08-19T08:36:35;15.23;;;10.55;;
7199;SDS011;3641;49.082;8.200;2022-08-19T08:39:08;20.23;;;11.20;;
7199;SDS011;3641;49.082;8.200;2022-08-19T08:41:37;13.60;;;11.23;;
7199;SDS011;3641;49.082;8.200;2022-08-19T08:44:11;15.88;;;10.50;;
7199;SDS011;3641;49.082;8.200;2022-08-19T08:46:41;15.77;;;10.88;;
7199;SDS011;3641;49.082;8.200;2022-08-19T08:49:16;14.13;;;10.57;;
7199;SDS011;3641;49.082;8.200;2022-08-19T08:52:06;16.45;;;11.50;;
7199;SDS011;3641;49.082;8.200;2022-08-19T08:54:39;15.10;;;12.10;;
7199;SDS011;3641;49.082;8.200;2022-08-19T08:57:10;13.25;;;10.32;;
7199;SDS011;3641;49.082;8.200;2022-08-19T08:59:40;16.08;;;11.80;;
7199;SDS011;3641;49.082;8.200;2022-08-19T09:02:09;14.88;;;10.25;;
7199;SDS011;3641;49.082;8.200;2022-08-19T09:04:35;15.10;;;10.15;;
7199;SDS011;3641;49.082;8.200;2022-08-19T09:07:10;16.02;;;10.50;;
7199;SDS011;3641;49.082;8.200;2022-08-19T09:09:50;12.38;;;9.75;;
7199;SDS011;3641;49.082;8.200;2022-08-19T09:12:19;16.23;;;9.70;;
7199;SDS011;3641;49.082;8.200;2022-08-19T09:14:54;12.45;;;9.52;;
7199;SDS011;3641;49.082;8.200;2022-08-19T09:17:25;10.80;;;8.07;;
7199;SDS011;3641;49.082;8.200;2022-08-19T09:19:56;9.18;;;8.18;;
7199;SDS011;3641;49.082;8.200;2022-08-19T09:22:25;13.40;;;9.00;;
7199;SDS011;3641;49.082;8.200;2022-08-19T09:24:54;13.38;;;8.55;;
7199;SDS011;3641;49.082;8.200;2022-08-19T09:27:21;11.65;;;8.75;;
7199;SDS011;3641;49.082;8.200;2022-08-19T09:29:50;11.65;;;8.70;;
7199;SDS011;3641;49.082;8.200;2022-08-19T09:32:16;11.43;;;8.38;;
7199;SDS011;3641;49.082;8.200;2022-08-19T09:34:43;14.07;;;9.30;;
7199;SDS011;3641;49.082;8.200;2022-08-19T09:37:10;12.90;;;8.82;;
7199;SDS011;3641;49.082;8.200;2022-08-19T09:39:37;13.00;;;10.15;;
7199;SDS011;3641;49.082;8.200;2022-08-19T09:42:07;11.75;;;8.07;;
7199;SDS011;3641;49.082;8.200;2022-08-19T09:44:37;13.35;;;9.90;;
7199;SDS011;3641;49.082;8.200;2022-08-19T09:47:04;12.15;;;9.05;;
7199;SDS011;3641;49.082;8.200;2022-08-19T09:49:30;11.15;;;8.68;;
7199;SDS011;3641;49.082;8.200;2022-08-19T09:51:57;10.70;;;8.82;;
7199;SDS011;3641;49.082;8.200;2022-08-19T09:54:23;14.57;;;10.10;;
7199;SDS011;3641;49.082;8.200;2022-08-19T09:56:50;13.65;;;9.57;;
7199;SDS011;3641;49.082;8.200;2022-08-19T09:59:18;11.80;;;8.57;;
7199;SDS011;3641;49.082;8.200;2022-08-19T10:01:45;11.82;;;8.77;;
7199;SDS011;3641;49.082;8.200;2022-08-19T10:04:12;10.57;;;7.95;;
7199;SDS011;3641;49.082;8.200;2022-08-19T10:06:39;8.75;;;7.53;;
7199;SDS011;3641;49.082;8.200;2022-08-19T10:09:07;12.80;;;8.77;;
7199;SDS011;3641;49.082;8.200;2022-08-19T10:11:36;11.77;;;7.75;;
7199;SDS011;3641;49.082;8.200;2022-08-19T10:14:06;13.55;;;7.80;;
7199;SDS011;3641;49.082;8.200;2022-08-19T10:16:35;11.57;;;7.35;;
7199;SDS011;3641;49.082;8.200;2022-08-19T10:19:04;11.45;;;7.72;;
7199;SDS011;3641;49.082;8.200;2022-08-19T10:21:31;9.60;;;7.80;;
7199;SDS011;3641;49.082;8.200;2022-08-19T10:23:59;10.48;;;8.10;;
7199;SDS011;3641;49.082;8.200;2022-08-19T10:26:29;10.73;;;7.97;;
7199;SDS011;3641;49.082;8.200;2022-08-19T10:28:57;11.68;;;8.10;;
7199;SDS011;3641;49.082;8.200;2022-08-19T10:31:25;10.27;;;8.85;;
7199;SDS011;3641;49.082;8.200;2022-08-19T10:33:54;11.63;;;8.15;;
7199;SDS011;3641;49.082;8.200;2022-08-19T10:36:22;9.65;;;8.10;;
7199;SDS011;3641;49.082;8.200;2022-08-19T10:38:50;10.52;;;8.43;;
7199;SDS011;3641;49.082;8.200;2022-08-19T10:41:19;11.18;;;7.93;;
7199;SDS011;3641;49.082;8.200;2022-08-19T10:43:50;11.68;;;8.98;;
7199;SDS011;3641;49.082;8.200;2022-08-19T10:46:17;10.43;;;9.15;;
7199;SDS011;3641;49.082;8.200;2022-08-19T10:48:44;13.23;;;9.65;;
7199;SDS011;3641;49.082;8.200;2022-08-19T10:51:12;10.20;;;8.93;;
7199;SDS011;3641;49.082;8.200;2022-08-19T10:53:56;10.63;;;8.90;;
7199;SDS011;3641;49.082;8.200;2022-08-19T10:56:24;10.57;;;9.05;;
7199;SDS011;3641;49.082;8.200;2022-08-19T10:59:08;9.85;;;8.05;;
7199;SDS011;3641;49.082;8.200;2022-08-19T11:01:37;9.82;;;7.97;;
7199;SDS011;3641;49.082;8.200;2022-08-19T11:04:04;11.30;;;8.10;;
7199;SDS011;3641;49.082;8.200;2022-08-19T11:06:35;11.82;;;9.32;;
7199;SDS011;3641;49.082;8.200;2022-08-19T11:09:03;11.23;;;8.57;;
7199;SDS011;3641;49.082;8.200;2022-08-19T11:11:31;11.85;;;8.95;;
7199;SDS011;3641;49.082;8.200;2022-08-19T11:13:58;12.52;;;9.32;;
7199;SDS011;3641;49.082;8.200;2022-08-19T11:16:25;11.10;;;8.55;;
7199;SDS011;3641;49.082;8.200;2022-08-19T11:18:56;12.07;;;8.80;;
7199;SDS011;3641;49.082;8.200;2022-08-19T11:21:25;9.90;;;8.82;;
7199;SDS011;3641;49.082;8.200;2022-08-19T11:23:58;11.05;;;8.80;;
7199;SDS011;3641;49.082;8.200;2022-08-19T11:26:27;10.55;;;8.30;;
7199;SDS011;3641;49.082;8.200;2022-08-19T11:28:55;12.27;;;8.95;;
7199;SDS011;3641;49.082;8.200;2022-08-19T11:31:23;13.57;;;8.10;;
7199;SDS011;3641;49.082;8.200;2022-08-19T11:33:52;10.88;;;7.88;;
7199;SDS011;3641;49.082;8.200;2022-08-19T11:36:20;8.98;;;7.40;;
7199;SDS011;3641;49.082;8.200;2022-08-19T11:38:47;9.30;;;7.47;;
7199;SDS011;3641;49.082;8.200;2022-08-19T11:41:17;9.40;;;7.32;;
7199;SDS011;3641;49.082;8.200;2022-08-19T11:43:45;9.75;;;7.72;;
7199;SDS011;3641;49.082;8.200;2022-08-19T11:46:13;10.95;;;7.93;;
7199;SDS011;3641;49.082;8.200;2022-08-19T11:48:41;9.32;;;7.72;;
7199;SDS011;3641;49.082;8.200;2022-08-19T11:51:09;10.32;;;7.55;;
7199;SDS011;3641;49.082;8.200;2022-08-19T11:53:37;8.35;;;7.32;;
7199;SDS011;3641;49.082;8.200;2022-08-19T11:56:04;10.32;;;7.60;;
7199;SDS011;3641;49.082;8.200;2022-08-19T11:58:33;8.43;;;7.25;;
7199;SDS011;3641;49.082;8.200;2022-08-19T12:01:00;9.15;;;7.25;;
7199;SDS011;3641;49.082;8.200;2022-08-19T12:03:27;9.93;;;6.65;;
7199;SDS011;3641;49.082;8.200;2022-08-19T12:05:54;6.97;;;6.28;;
7199;SDS011;3641;49.082;8.200;2022-08-19T12:08:20;6.53;;;4.82;;
7199;SDS011;3641;49.082;8.200;2022-08-19T12:10:47;7.40;;;5.35;;
7199;SDS011;3641;49.082;8.200;2022-08-19T12:13:13;9.50;;;6.88;;
7199;SDS011;3641;49.082;8.200;2022-08-19T12:15:45;6.70;;;4.90;;
7199;SDS011;3641;49.082;8.200;2022-08-19T12:18:12;6.47;;;4.95;;
7199;SDS011;3641;49.082;8.200;2022-08-19T12:20:40;7.05;;;4.97;;
7199;SDS011;3641;49.082;8.200;2022-08-19T12:23:09;5.38;;;4.40;;
7199;SDS011;3641;49.082;8.200;2022-08-19T12:25:36;5.78;;;4.07;;
7199;SDS011;3641;49.082;8.200;2022-08-19T12:28:04;5.03;;;4.20;;
7199;SDS011;3641;49.082;8.200;2022-08-19T12:30:30;5.72;;;4.30;;
7199;SDS011;3641;49.082;8.200;2022-08-19T12:32:58;4.75;;;3.92;;
7199;SDS011;3641;49.082;8.200;2022-08-19T12:35:24;5.88;;;3.83;;
7199;SDS011;3641;49.082;8.200;2022-08-19T12:37:51;6.40;;;3.67;;
7199;SDS011;3641;49.082;8.200;2022-08-19T12:40:17;6.45;;;3.92;;
7199;SDS011;3641;49.082;8.200;2022-08-19T12:42:44;6.88;;;3.60;;
7199;SDS011;3641;49.082;8.200;2022-08-19T12:45:12;4.93;;;3.40;;
7199;SDS011;3641;49.082;8.200;2022-08-19T12:47:39;4.65;;;3.40;;
7199;SDS011;3641;49.082;8.200;2022-08-19T12:50:08;4.10;;;3.25;;
7199;SDS011;3641;49.082;8.200;2022-08-19T12:52:35;3.30;;;3.00;;
7199;SDS011;3641;49.082;8.200;2022-08-19T12:55:03;5.57;;;3.58;;
7199;SDS011;3641;49.082;8.200;2022-08-19T12:57:31;5.25;;;3.38;;
7199;SDS011;3641;49.082;8.200;2022-08-19T13:00:00;4.78;;;3.63;;
7199;SDS011;3641;49.082;8.200;2022-08-19T13:02:32;5.25;;;4.10;;
7199;SDS011;3641;49.082;8.200;2022-08-19T13:04:59;5.63;;;3.95;;
7199;SDS011;3641;49.082;8.200;2022-08-19T13:07:27;5.53;;;3.85;;
7199;SDS011;3641;49.082;8.200;2022-08-19T13:09:55;6.03;;;4.15;;
7199;SDS011;3641;49.082;8.200;2022-08-19T13:12:22;5.70;;;4.05;;
7199;SDS011;3641;49.082;8.200;2022-08-19T13:14:51;5.00;;;4.03;;
7199;SDS011;3641;49.082;8.200;2022-08-19T13:17:18;7.53;;;4.80;;
7199;SDS011;3641;49.082;8.200;2022-08-19T13:19:45;5.75;;;4.35;;
7199;SDS011;3641;49.082;8.200;2022-08-19T13:22:12;5.35;;;4.13;;
7199;SDS011;3641;49.082;8.200;2022-08-19T13:24:40;4.65;;;4.03;;
7199;SDS011;3641;49.082;8.200;2022-08-19T13:27:06;11.50;;;4.68;;
7199;SDS011;3641;49.082;8.200;2022-08-19T13:29:33;7.32;;;5.13;;
7199;SDS011;3641;49.082;8.200;2022-08-19T13:32:17;5.78;;;4.10;;
7199;SDS011;3641;49.082;8.200;2022-08-19T13:35:01;6.13;;;3.75;;
7199;SDS011;3641;49.082;8.200;2022-08-19T13:37:27;5.47;;;4.32;;
7199;SDS011;3641;49.082;8.200;2022-08-19T13:40:09;6.80;;;4.68;;
7199;SDS011;3641;49.082;8.200;2022-08-19T13:42:40;6.20;;;4.18;;
7199;SDS011;3641;49.082;8.200;2022-08-19T13:45:07;5.40;;;4.55;;
7199;SDS011;3641;49.082;8.200;2022-08-19T13:47:34;6.75;;;4.40;;
7199;SDS011;3641;49.082;8.200;2022-08-19T13:50:07;7.22;;;4.65;;
7199;SDS011;3641;49.082;8.200;2022-08-19T13:52:34;6.57;;;4.55;;
7199;SDS011;3641;49.082;8.200;2022-08-19T13:55:01;5.20;;;4.60;;
7199;SDS011;3641;49.082;8.200;2022-08-19T13:57:30;4.80;;;4.18;;
7199;SDS011;3641;49.082;8.200;2022-08-19T13:59:58;4.97;;;4.38;;
7199;SDS011;3641;49.082;8.200;2022-08-19T14:02:25;5.35;;;4.68;;
7199;SDS011;3641;49.082;8.200;2022-08-19T14:04:52;5.53;;;4.65;;
7199;SDS011;3641;49.082;8.200;2022-08-19T14:07:18;5.68;;;4.85;;
7199;SDS011;3641;49.082;8.200;2022-08-19T14:09:45;9.63;;;4.93;;
7199;SDS011;3641;49.082;8.200;2022-08-19T14:12:11;5.50;;;4.53;;
7199;SDS011;3641;49.082;8.200;2022-08-19T14:14:39;6.68;;;4.65;;
7199;SDS011;3641;49.082;8.200;2022-08-19T14:17:06;8.48;;;4.78;;
7199;SDS011;3641;49.082;8.200;2022-08-19T14:19:33;7.35;;;4.90;;
7199;SDS011;3641;49.082;8.200;2022-08-19T14:21:59;6.35;;;4.63;;
7199;SDS011;3641;49.082;8.200;2022-08-19T14:24:26;5.78;;;4.45;;
7199;SDS011;3641;49.082;8.200;2022-08-19T14:26:52;4.95;;;4.35;;
7199;SDS011;3641;49.082;8.200;2022-08-19T14:29:19;5.88;;;4.30;;
7199;SDS011;3641;49.082;8.200;2022-08-19T14:31:46;5.05;;;4.05;;
7199;SDS011;3641;49.082;8.200;2022-08-19T14:34:13;6.45;;;4.70;;
7199;SDS011;3641;49.082;8.200;2022-08-19T14:36:39;5.50;;;4.20;;
7199;SDS011;3641;49.082;8.200;2022-08-19T14:39:07;5.13;;;3.92;;
7199;SDS011;3641;49.082;8.200;2022-08-19T14:41:34;5.82;;;4.30;;
7199;SDS011;3641;49.082;8.200;2022-08-19T14:44:01;5.88;;;4.57;;
7199;SDS011;3641;49.082;8.200;2022-08-19T14:46:28;6.90;;;4.18;;
7199;SDS011;3641;49.082;8.200;2022-08-19T14:48:56;5.80;;;4.40;;
7199;SDS011;3641;49.082;8.200;2022-08-19T14:51:23;5.22;;;4.18;;
7199;SDS011;3641;49.082;8.200;2022-08-19T14:53:51;6.78;;;4.32;;
7199;SDS011;3641;49.082;8.200;2022-08-19T14:56:18;8.02;;;4.80;;
7199;SDS011;3641;49.082;8.200;2022-08-19T14:58:47;7.57;;;4.68;;
7199;SDS011;3641;49.082;8.200;2022-08-19T15:01:16;5.78;;;4.18;;
7199;SDS011;3641;49.082;8.200;2022-08-19T15:03:45;7.25;;;4.30;;